Time;durP1;ratioP1;P1;durP2;ratioP2;P2;SDS_P1;SDS_P2;PMS_P1;PMS_P2;Temp;Humidity;BMP_temperature;BMP_pressure;BME280_temperature;BME280_humidity;BME280_pressure;Samples;Min_cycle;Max_cycle;Signal;HPM_P1;HPM_P2
2021/07/07 00:00:58;;;;;;;4.03;2.47;;;19.50;95.00;;;;;;4961542;28;20533;-81
2021/07/07 00:03:28;;;;;;;3.53;2.50;;;19.40;95.30;;;;;;4962600;28;20451;-83
2021/07/07 00:05:55;;;;;;;3.63;2.50;;;19.40;95.30;;;;;;4962699;29;20968;-81
2021/07/07 00:08:22;;;;;;;4.97;2.03;;;19.50;96.00;;;;;;4964145;28;20479;-83
2021/07/07 00:10:49;;;;;;;5.40;2.50;;;19.50;96.60;;;;;;4949597;29;20591;-82
2021/07/07 00:13:17;;;;;;;5.77;2.90;;;19.40;97.00;;;;;;4959769;28;20465;-83
2021/07/07 00:15:44;;;;;;;4.00;2.13;;;19.30;97.60;;;;;;4979173;28;20465;-82
2021/07/07 00:18:11;;;;;;;6.80;2.30;;;19.20;97.90;;;;;;4965780;28;20461;-82
2021/07/07 00:20:43;;;;;;;5.73;3.27;;;19.10;98.10;;;;;;4957806;28;20955;-82
2021/07/07 00:23:11;;;;;;;6.70;2.47;;;19.00;98.30;;;;;;4965294;28;20682;-80
2021/07/07 00:25:37;;;;;;;5.27;2.53;;;19.00;98.60;;;;;;4941996;29;20454;-82
2021/07/07 00:28:04;;;;;;;7.00;2.50;;;19.00;98.80;;;;;;4946015;29;20488;-81
2021/07/07 00:30:31;;;;;;;6.60;2.97;;;19.10;98.70;;;;;;4948643;29;20536;-82
2021/07/07 00:32:59;;;;;;;3.00;2.23;;;19.00;98.80;;;;;;4944420;29;20468;-83
2021/07/07 00:35:26;;;;;;;6.10;2.30;;;18.90;99.00;;;;;;4958444;28;20452;-81
2021/07/07 00:37:52;;;;;;;5.33;2.40;;;18.90;99.20;;;;;;4956006;29;20461;-84
2021/07/07 00:40:19;;;;;;;4.00;2.40;;;19.10;99.00;;;;;;4957594;28;20534;-82
2021/07/07 00:42:46;;;;;;;10.30;2.37;;;19.10;99.30;;;;;;4961975;28;20477;-80
2021/07/07 00:45:13;;;;;;;7.67;2.30;;;19.30;99.10;;;;;;4943716;29;20902;-82
2021/07/07 00:47:41;;;;;;;3.77;2.50;;;19.30;99.00;;;;;;4953657;28;20546;-82
2021/07/07 00:50:08;;;;;;;4.77;2.30;;;19.30;99.10;;;;;;4961739;29;20567;-83
2021/07/07 00:52:35;;;;;;;6.53;2.17;;;19.20;99.10;;;;;;4967603;28;20445;-82
2021/07/07 00:55:07;;;;;;;3.17;2.47;;;19.20;99.20;;;;;;4956110;28;20456;-82
2021/07/07 00:57:35;;;;;;;3.87;2.37;;;19.20;99.10;;;;;;4944485;29;20563;-82
2021/07/07 01:00:08;;;;;;;5.07;2.90;;;19.10;99.00;;;;;;4960095;28;20544;-82
2021/07/07 01:02:38;;;;;;;7.33;2.80;;;18.90;99.30;;;;;;4965988;28;20565;-83
2021/07/07 01:05:07;;;;;;;6.17;3.10;;;18.90;99.40;;;;;;4949275;29;20468;-81
2021/07/07 01:07:34;;;;;;;3.67;2.17;;;18.80;99.60;;;;;;4958434;28;20485;-81
2021/07/07 01:10:02;;;;;;;4.40;2.27;;;18.70;99.90;;;;;;4958170;28;20464;-82
2021/07/07 01:12:30;;;;;;;5.43;2.37;;;18.90;99.70;;;;;;4957785;28;20551;-81
2021/07/07 01:15:00;;;;;;;6.93;2.60;;;19.00;99.20;;;;;;4954598;28;20543;-82
2021/07/07 01:17:29;;;;;;;3.93;2.77;;;18.70;99.30;;;;;;4956526;28;20461;-81
2021/07/07 01:19:56;;;;;;;3.70;2.50;;;18.70;99.60;;;;;;4951915;29;20513;-81
2021/07/07 01:22:28;;;;;;;7.17;2.50;;;18.50;99.80;;;;;;4960055;28;20445;-82
2021/07/07 01:24:56;;;;;;;6.70;2.60;;;18.70;99.90;;;;;;4956554;28;20496;-82
2021/07/07 01:27:25;;;;;;;3.80;3.03;;;18.70;99.90;;;;;;4960814;28;20553;-83
2021/07/07 01:29:53;;;;;;;5.80;2.60;;;18.70;99.90;;;;;;4959207;28;20464;-83
2021/07/07 01:32:20;;;;;;;8.90;3.10;;;18.70;99.90;;;;;;4950282;29;20469;-81
2021/07/07 01:34:47;;;;;;;8.57;3.30;;;18.70;99.90;;;;;;4956377;28;20453;-80
2021/07/07 01:37:14;;;;;;;8.53;2.87;;;18.80;99.60;;;;;;4955967;29;20456;-81
2021/07/07 01:39:41;;;;;;;3.40;2.30;;;18.70;99.70;;;;;;4952554;28;21017;-82
2021/07/07 01:42:08;;;;;;;5.97;2.50;;;18.60;99.90;;;;;;4961073;28;20476;-81
2021/07/07 01:44:35;;;;;;;4.30;2.63;;;18.60;99.90;;;;;;4955782;29;20922;-83
2021/07/07 01:47:03;;;;;;;3.30;2.53;;;18.60;99.90;;;;;;4968370;28;20571;-82
2021/07/07 01:49:30;;;;;;;5.73;2.60;;;18.60;99.90;;;;;;4958717;28;20468;-82
2021/07/07 01:51:57;;;;;;;6.87;2.77;;;18.70;99.90;;;;;;4951941;28;20452;-81
2021/07/07 01:54:24;;;;;;;7.03;2.43;;;18.60;99.90;;;;;;4954737;28;20488;-81
2021/07/07 01:56:50;;;;;;;9.33;3.50;;;18.50;99.90;;;;;;4949677;29;20464;-81
2021/07/07 01:59:17;;;;;;;8.13;3.50;;;18.30;99.90;;;;;;4955908;29;20487;-80
2021/07/07 02:01:44;;;;;;;2.83;2.07;;;18.20;99.90;;;;;;4947075;28;20795;-81
2021/07/07 02:04:10;;;;;;;5.60;2.70;;;18.20;99.90;;;;;;4950267;28;20470;-82
2021/07/07 02:06:37;;;;;;;8.73;2.87;;;18.30;99.90;;;;;;4959207;28;20463;-82
2021/07/07 02:09:07;;;;;;;4.70;2.87;;;18.20;99.90;;;;;;4952289;29;20785;-82
2021/07/07 02:11:35;;;;;;;5.30;2.60;;;18.20;99.90;;;;;;4959901;28;20476;-82
2021/07/07 02:14:03;;;;;;;6.43;2.40;;;18.10;99.90;;;;;;4954414;29;20499;-82
2021/07/07 02:16:30;;;;;;;4.87;2.20;;;18.10;99.90;;;;;;4967252;29;20433;-81
2021/07/07 02:18:57;;;;;;;3.93;2.23;;;18.20;99.90;;;;;;4955859;28;20464;-82
2021/07/07 02:21:23;;;;;;;8.10;2.47;;;18.10;99.90;;;;;;4941087;28;20454;-81
2021/07/07 02:23:50;;;;;;;5.43;3.73;;;18.20;99.90;;;;;;4955286;29;20445;-81
2021/07/07 02:26:16;;;;;;;9.20;2.87;;;18.10;99.90;;;;;;4955292;28;20555;-80
2021/07/07 02:28:43;;;;;;;4.17;2.57;;;18.20;99.90;;;;;;4953526;29;20602;-81
2021/07/07 02:31:10;;;;;;;5.30;2.60;;;18.10;99.90;;;;;;4952254;29;20449;-81
2021/07/07 02:33:37;;;;;;;5.20;2.97;;;18.00;99.90;;;;;;4952414;29;20465;-81
2021/07/07 02:36:06;;;;;;;9.30;3.10;;;18.00;99.90;;;;;;4954005;29;20462;-80
2021/07/07 02:38:33;;;;;;;3.50;2.40;;;18.00;99.90;;;;;;4951021;29;20488;-81
2021/07/07 02:41:00;;;;;;;8.00;2.40;;;18.00;99.90;;;;;;4953533;29;20448;-81
2021/07/07 02:43:27;;;;;;;4.43;2.10;;;17.80;99.90;;;;;;4953990;29;20476;-81
2021/07/07 02:45:53;;;;;;;5.57;2.70;;;17.60;99.90;;;;;;4958339;29;20469;-81
2021/07/07 02:48:22;;;;;;;4.90;2.60;;;17.60;99.90;;;;;;4967628;28;20519;-82
2021/07/07 02:50:50;;;;;;;6.70;2.67;;;17.50;99.90;;;;;;4976362;28;20451;-82
2021/07/07 02:53:18;;;;;;;5.60;2.80;;;17.40;99.90;;;;;;4976514;28;20512;-82
2021/07/07 02:55:45;;;;;;;6.33;2.70;;;17.40;99.90;;;;;;4976096;29;20472;-82
2021/07/07 02:58:12;;;;;;;5.53;2.80;;;17.40;99.90;;;;;;4964636;29;20528;-82
2021/07/07 03:00:41;;;;;;;3.57;2.50;;;17.40;99.90;;;;;;4956907;28;20954;-81
2021/07/07 03:03:19;;;;;;;3.93;2.53;;;17.40;99.90;;;;;;4954996;29;20445;-82
2021/07/07 03:05:51;;;;;;;5.33;2.80;;;17.40;99.90;;;;;;4941241;29;20464;-82
2021/07/07 03:08:25;;;;;;;4.83;2.60;;;17.30;99.90;;;;;;4936495;29;20490;-82
2021/07/07 03:10:53;;;;;;;8.40;3.30;;;17.30;99.90;;;;;;4936918;29;20456;-82
2021/07/07 03:13:21;;;;;;;3.93;2.40;;;17.30;99.90;;;;;;4937102;29;20449;-82
2021/07/07 03:15:49;;;;;;;5.47;2.53;;;17.40;99.90;;;;;;4955261;29;20972;-83
2021/07/07 03:18:16;;;;;;;7.07;3.00;;;17.40;99.90;;;;;;4956772;29;20480;-81
2021/07/07 03:20:46;;;;;;;7.57;2.93;;;17.40;99.90;;;;;;4956865;29;20467;-82
2021/07/07 03:23:15;;;;;;;7.60;3.00;;;17.40;99.90;;;;;;4948868;29;20515;-82
2021/07/07 03:25:41;;;;;;;3.10;2.23;;;17.40;99.90;;;;;;4937750;29;20543;-81
2021/07/07 03:28:08;;;;;;;3.97;2.23;;;17.40;99.90;;;;;;4940939;29;20510;-82
2021/07/07 03:30:35;;;;;;;5.20;2.53;;;17.30;99.90;;;;;;4956072;29;20445;-82
2021/07/07 03:33:03;;;;;;;7.37;2.57;;;17.40;99.90;;;;;;4946773;29;20461;-82
2021/07/07 03:35:30;;;;;;;2.50;2.27;;;17.40;99.90;;;;;;4937198;29;20446;-82
2021/07/07 03:37:57;;;;;;;4.77;2.53;;;17.40;99.90;;;;;;4942917;29;20461;-82
2021/07/07 03:40:25;;;;;;;8.30;2.50;;;17.40;99.90;;;;;;4943211;29;20564;-81
2021/07/07 03:42:52;;;;;;;8.27;3.10;;;17.30;99.90;;;;;;4959818;29;20464;-82
2021/07/07 03:45:19;;;;;;;6.57;3.97;;;17.30;99.90;;;;;;4961581;29;20448;-81
2021/07/07 03:47:47;;;;;;;4.23;2.37;;;17.10;99.90;;;;;;4959456;29;20488;-82
2021/07/07 03:50:16;;;;;;;4.40;2.40;;;17.10;99.90;;;;;;4949104;29;20573;-82
2021/07/07 03:52:44;;;;;;;4.40;2.70;;;17.20;99.90;;;;;;4942075;29;20457;-82
2021/07/07 03:55:15;;;;;;;8.87;2.80;;;17.10;99.90;;;;;;4956144;28;20441;-83
2021/07/07 03:57:42;;;;;;;5.27;2.40;;;17.20;99.90;;;;;;4959323;29;20461;-82
2021/07/07 04:00:12;;;;;;;5.33;2.50;;;17.20;99.90;;;;;;4955952;28;20469;-82
2021/07/07 04:02:39;;;;;;;7.50;3.47;;;17.20;99.90;;;;;;4960631;28;20459;-82
2021/07/07 04:05:08;;;;;;;6.40;3.30;;;17.20;99.90;;;;;;4961291;29;20512;-82
2021/07/07 04:07:35;;;;;;;3.87;2.57;;;17.20;99.90;;;;;;4958520;29;20486;-82
2021/07/07 04:10:04;;;;;;;4.73;2.93;;;17.20;99.90;;;;;;4959127;29;20508;-82
2021/07/07 04:12:31;;;;;;;10.27;2.60;;;17.30;99.90;;;;;;4958901;29;20465;-82
2021/07/07 04:14:58;;;;;;;8.80;3.03;;;17.30;99.90;;;;;;4952698;29;20467;-82
2021/07/07 04:17:25;;;;;;;7.63;2.73;;;17.40;99.90;;;;;;4959491;29;20456;-83
2021/07/07 04:19:52;;;;;;;3.70;2.57;;;17.30;99.90;;;;;;4957995;29;20820;-82
2021/07/07 04:22:19;;;;;;;5.73;3.60;;;17.30;99.90;;;;;;4956864;29;20479;-82
2021/07/07 04:24:48;;;;;;;9.17;3.00;;;17.40;99.90;;;;;;4957905;29;20488;-82
2021/07/07 04:27:15;;;;;;;10.37;2.90;;;17.40;99.90;;;;;;4960097;29;20457;-82
2021/07/07 04:29:41;;;;;;;5.27;2.47;;;17.50;99.90;;;;;;4959940;29;20457;-82
2021/07/07 04:32:08;;;;;;;5.30;2.47;;;17.40;99.90;;;;;;4941605;29;20469;-83
2021/07/07 04:34:35;;;;;;;4.93;2.50;;;17.50;99.90;;;;;;4955307;29;20499;-82
2021/07/07 04:37:02;;;;;;;3.33;2.53;;;17.60;99.90;;;;;;4959903;29;20456;-82
2021/07/07 04:39:28;;;;;;;3.90;2.07;;;17.60;99.90;;;;;;4947957;29;20480;-81
2021/07/07 04:41:55;;;;;;;9.10;3.20;;;17.60;99.90;;;;;;4961902;29;20453;-82
2021/07/07 04:44:21;;;;;;;8.17;2.83;;;17.80;99.90;;;;;;4964104;29;20544;-81
2021/07/07 04:46:48;;;;;;;3.27;2.60;;;18.00;99.90;;;;;;4959423;29;20966;-83
2021/07/07 04:49:15;;;;;;;6.30;2.40;;;18.00;99.90;;;;;;4952549;28;20540;-81
2021/07/07 04:51:42;;;;;;;8.70;2.87;;;17.90;99.90;;;;;;4971903;28;20444;-82
2021/07/07 04:54:08;;;;;;;7.17;2.80;;;18.00;99.90;;;;;;4949031;28;20453;-81
2021/07/07 04:56:36;;;;;;;8.00;2.80;;;18.00;99.90;;;;;;4956366;29;20541;-81
2021/07/07 04:59:02;;;;;;;5.90;2.50;;;17.90;99.90;;;;;;4959644;29;20481;-82
2021/07/07 05:01:29;;;;;;;6.87;3.27;;;17.80;99.90;;;;;;4958731;29;20445;-81
2021/07/07 05:03:56;;;;;;;8.33;3.40;;;17.70;99.90;;;;;;4952284;29;20509;-82
2021/07/07 05:06:24;;;;;;;9.40;2.90;;;17.80;99.90;;;;;;4955356;29;20461;-82
2021/07/07 05:08:51;;;;;;;3.10;2.27;;;17.90;99.90;;;;;;4940160;29;20492;-82
2021/07/07 05:11:18;;;;;;;3.70;2.30;;;18.00;99.90;;;;;;4938583;29;20461;-81
2021/07/07 05:13:44;;;;;;;4.27;2.30;;;18.20;99.90;;;;;;4961320;29;20468;-81
2021/07/07 05:16:12;;;;;;;6.03;2.50;;;18.20;99.90;;;;;;4959216;29;20515;-82
2021/07/07 05:18:39;;;;;;;4.40;2.70;;;18.20;99.90;;;;;;4958426;29;20477;-83
2021/07/07 05:21:05;;;;;;;6.80;2.70;;;18.20;99.90;;;;;;4956666;29;20488;-82
2021/07/07 05:23:34;;;;;;;4.03;1.90;;;18.20;99.90;;;;;;4956388;29;20758;-82
2021/07/07 05:26:02;;;;;;;4.23;2.50;;;18.10;99.90;;;;;;4941035;29;20453;-83
2021/07/07 05:28:29;;;;;;;4.83;2.80;;;18.30;99.90;;;;;;4954581;29;20512;-81
2021/07/07 05:31:06;;;;;;;8.50;2.37;;;18.30;99.90;;;;;;4958730;29;20458;-80
2021/07/07 05:33:35;;;;;;;3.53;2.20;;;18.20;99.90;;;;;;4953307;29;20511;-82
2021/07/07 05:36:07;;;;;;;2.57;1.80;;;18.40;99.90;;;;;;4966349;29;20480;-82
2021/07/07 05:38:34;;;;;;;4.57;2.20;;;18.40;99.90;;;;;;4959027;29;20485;-82
2021/07/07 05:41:02;;;;;;;5.13;2.10;;;18.30;99.90;;;;;;4955518;29;20471;-82
2021/07/07 05:43:30;;;;;;;3.77;2.30;;;18.40;99.90;;;;;;4957518;29;20457;-80
2021/07/07 05:45:59;;;;;;;4.00;2.40;;;18.40;99.90;;;;;;4955848;29;20461;-82
2021/07/07 05:48:27;;;;;;;5.00;2.70;;;18.40;99.90;;;;;;4959177;29;20547;-83
2021/07/07 05:50:56;;;;;;;4.37;2.33;;;18.50;99.90;;;;;;4949159;29;20461;-81
2021/07/07 05:53:23;;;;;;;8.13;2.37;;;18.40;99.90;;;;;;4956917;29;20536;-82
2021/07/07 05:55:51;;;;;;;3.37;2.30;;;18.50;99.90;;;;;;4960016;29;20460;-82
2021/07/07 05:58:18;;;;;;;3.57;2.40;;;18.60;99.90;;;;;;4959724;29;20457;-83
2021/07/07 06:00:45;;;;;;;3.73;2.10;;;18.60;99.90;;;;;;4957874;28;20453;-82
2021/07/07 06:03:14;;;;;;;4.07;3.10;;;18.70;99.90;;;;;;4960774;29;20468;-82
2021/07/07 06:05:41;;;;;;;2.57;2.10;;;18.90;99.90;;;;;;4960901;29;20935;-82
2021/07/07 06:08:08;;;;;;;3.83;2.67;;;19.20;99.90;;;;;;4958257;29;20580;-83
2021/07/07 06:10:34;;;;;;;7.63;6.20;;;19.30;99.90;;;;;;4971059;28;20451;-82
2021/07/07 06:13:02;;;;;;;4.63;2.23;;;19.60;99.90;;;;;;4938927;29;20481;-82
2021/07/07 06:15:32;;;;;;;3.90;2.30;;;19.70;99.90;;;;;;4942600;29;20496;-82
2021/07/07 06:18:00;;;;;;;6.40;3.13;;;19.50;99.90;;;;;;4943763;29;20509;-82
2021/07/07 06:20:34;;;;;;;2.10;1.90;;;19.50;99.90;;;;;;4947256;29;20480;-82
2021/07/07 06:23:02;;;;;;;6.70;2.70;;;19.50;99.90;;;;;;4964347;28;20543;-83
2021/07/07 06:25:32;;;;;;;2.83;1.90;;;19.40;99.90;;;;;;4955856;29;20795;-82
2021/07/07 06:28:01;;;;;;;5.30;2.60;;;19.40;99.90;;;;;;4959727;29;20575;-82
2021/07/07 06:30:28;;;;;;;5.23;1.90;;;19.30;99.90;;;;;;4958410;29;20452;-82
2021/07/07 06:32:59;;;;;;;4.40;2.10;;;19.30;99.90;;;;;;4958265;29;20464;-82
2021/07/07 06:35:36;;;;;;;5.40;2.83;;;19.20;99.90;;;;;;4958010;29;20429;-82
2021/07/07 06:38:04;;;;;;;6.87;2.57;;;19.20;99.90;;;;;;4957610;29;20476;-82
2021/07/07 06:40:33;;;;;;;4.63;2.23;;;19.40;99.90;;;;;;4957309;29;20457;-82
2021/07/07 06:43:01;;;;;;;3.00;2.30;;;19.30;99.90;;;;;;4951070;29;20540;-82
2021/07/07 06:45:36;;;;;;;5.27;2.37;;;19.20;99.90;;;;;;4921252;29;20476;-82
2021/07/07 06:48:09;;;;;;;4.63;1.90;;;19.20;99.90;;;;;;4947621;29;20594;-83
2021/07/07 06:50:42;;;;;;;5.93;2.07;;;19.70;99.90;;;;;;4949004;29;20456;-82
2021/07/07 06:53:12;;;;;;;8.33;2.97;;;20.00;99.90;;;;;;4949696;29;20452;-81
2021/07/07 06:55:40;;;;;;;6.40;2.30;;;20.20;99.90;;;;;;4942278;28;20462;-82
2021/07/07 06:58:12;;;;;;;5.40;2.40;;;20.20;99.90;;;;;;4939514;29;20525;-82
2021/07/07 07:00:40;;;;;;;5.20;2.50;;;20.20;99.90;;;;;;4940205;29;20431;-80
2021/07/07 07:03:06;;;;;;;2.53;2.17;;;20.30;99.90;;;;;;4941319;29;20488;-83
2021/07/07 07:05:34;;;;;;;3.70;2.43;;;20.30;99.90;;;;;;4955191;29;20453;-83
2021/07/07 07:08:02;;;;;;;3.23;2.47;;;20.40;99.90;;;;;;4941814;29;20465;-82
2021/07/07 07:10:29;;;;;;;5.63;2.50;;;20.50;99.90;;;;;;4943651;29;20517;-82
2021/07/07 07:12:56;;;;;;;8.30;2.47;;;20.60;99.80;;;;;;4954687;29;20465;-83
2021/07/07 07:15:23;;;;;;;2.87;2.47;;;20.50;99.90;;;;;;4957257;29;20453;-82
2021/07/07 07:17:50;;;;;;;3.80;2.37;;;20.80;99.00;;;;;;4951526;28;20460;-82
2021/07/07 07:20:17;;;;;;;3.70;2.00;;;20.70;98.80;;;;;;4953019;28;20468;-83
2021/07/07 07:22:44;;;;;;;3.20;2.30;;;20.40;99.40;;;;;;4933330;28;20464;-82
2021/07/07 07:25:12;;;;;;;4.60;2.10;;;20.70;99.20;;;;;;4933982;29;21409;-81
2021/07/07 07:27:40;;;;;;;6.33;3.33;;;20.40;99.70;;;;;;4944718;29;20455;-82
2021/07/07 07:30:08;;;;;;;4.07;2.47;;;20.50;99.90;;;;;;4945197;28;20494;-82
2021/07/07 07:32:44;;;;;;;6.17;2.70;;;20.80;99.30;;;;;;4954767;29;20527;-80
2021/07/07 07:35:12;;;;;;;6.07;2.90;;;20.90;98.90;;;;;;4957007;29;20908;-83
2021/07/07 07:37:50;;;;;;;5.80;2.40;;;21.10;98.80;;;;;;4947667;29;20458;-83
2021/07/07 07:40:31;;;;;;;4.83;2.80;;;21.10;98.50;;;;;;4944142;29;20487;-83
2021/07/07 07:42:58;;;;;;;3.07;2.00;;;21.50;98.30;;;;;;4948676;29;20470;-83
2021/07/07 07:45:25;;;;;;;3.40;2.40;;;21.40;97.90;;;;;;4958622;29;20461;-83
2021/07/07 07:47:51;;;;;;;2.73;1.67;;;21.30;98.50;;;;;;4954526;29;20462;-83
2021/07/07 07:50:19;;;;;;;4.70;2.60;;;21.40;97.80;;;;;;4954288;29;20559;-81
2021/07/07 07:52:46;;;;;;;3.40;2.53;;;21.30;97.90;;;;;;4951336;29;20448;-83
2021/07/07 07:55:13;;;;;;;2.50;1.93;;;21.30;98.10;;;;;;4958531;29;20532;-83
2021/07/07 07:57:41;;;;;;;2.27;2.07;;;21.40;97.70;;;;;;4957676;29;20472;-82
2021/07/07 08:00:14;;;;;;;3.80;2.40;;;21.40;97.40;;;;;;4958171;29;20484;-81
2021/07/07 08:02:44;;;;;;;3.97;2.23;;;21.30;97.70;;;;;;4949330;29;20544;-82
2021/07/07 08:05:12;;;;;;;4.37;2.20;;;21.40;97.80;;;;;;4956229;28;20464;-82
2021/07/07 08:07:39;;;;;;;4.33;2.07;;;21.60;97.40;;;;;;4965484;28;20467;-83
2021/07/07 08:10:08;;;;;;;5.00;2.63;;;21.80;97.30;;;;;;4981669;28;20475;-82
2021/07/07 08:12:35;;;;;;;3.13;2.83;;;21.60;97.10;;;;;;4969172;28;20461;-82
2021/07/07 08:15:03;;;;;;;3.63;2.00;;;21.70;97.20;;;;;;4959658;29;20476;-83
2021/07/07 08:17:30;;;;;;;4.17;2.03;;;21.90;96.70;;;;;;4957946;29;20445;-83
2021/07/07 08:19:59;;;;;;;5.77;2.90;;;22.00;96.20;;;;;;4958858;29;20533;-83
2021/07/07 08:22:26;;;;;;;4.17;2.43;;;21.90;96.50;;;;;;4952377;29;20468;-83
2021/07/07 08:24:53;;;;;;;4.23;2.23;;;21.90;96.30;;;;;;4963992;28;20438;-84
2021/07/07 08:27:20;;;;;;;5.90;2.13;;;21.80;96.20;;;;;;4971542;29;20571;-84
2021/07/07 08:29:47;;;;;;;6.73;3.13;;;22.00;96.20;;;;;;4965724;28;20484;-83
2021/07/07 08:32:13;;;;;;;3.90;2.20;;;22.00;96.20;;;;;;4961171;28;20457;-84
2021/07/07 08:34:40;;;;;;;6.93;2.40;;;22.30;96.00;;;;;;4958900;28;20489;-83
2021/07/07 08:37:07;;;;;;;3.40;2.70;;;22.70;95.30;;;;;;4961570;29;20452;-84
2021/07/07 08:39:35;;;;;;;2.83;2.00;;;23.00;95.00;;;;;;4951599;29;20825;-82
2021/07/07 08:42:02;;;;;;;3.80;2.20;;;23.20;94.40;;;;;;4956377;29;20461;-83
2021/07/07 08:44:29;;;;;;;3.70;2.33;;;23.10;94.30;;;;;;4958296;29;20938;-83
2021/07/07 08:46:56;;;;;;;2.97;2.13;;;23.30;94.30;;;;;;4959000;29;20452;-81
2021/07/07 08:49:30;;;;;;;3.80;2.47;;;23.70;93.60;;;;;;4998246;23;20589;-81
2021/07/07 08:51:57;;;;;;;3.17;2.33;;;23.40;93.40;;;;;;5000900;28;20444;-82
2021/07/07 08:54:24;;;;;;;4.23;1.90;;;23.80;93.00;;;;;;4998576;28;20443;-83
2021/07/07 08:56:51;;;;;;;3.30;2.20;;;23.90;92.40;;;;;;5018051;28;20465;-83
2021/07/07 08:59:19;;;;;;;3.17;2.03;;;24.30;92.60;;;;;;5017221;28;21026;-82
2021/07/07 09:02:06;;;;;;;3.57;2.10;;;25.10;90.80;;;;;;5019304;28;20534;-82
2021/07/07 09:04:45;;;;;;;2.73;2.07;;;24.80;89.20;;;;;;5016021;28;20492;-82
2021/07/07 09:07:16;;;;;;;6.07;2.27;;;24.30;90.30;;;;;;5013194;28;20465;-83
2021/07/07 09:09:51;;;;;;;4.00;2.20;;;24.40;89.40;;;;;;5015885;28;20897;-82
2021/07/07 09:12:24;;;;;;;3.77;1.90;;;24.00;90.00;;;;;;5018276;28;20939;-82
2021/07/07 09:15:25;;;;;;;3.90;1.70;;;24.40;88.80;;;;;;4994512;28;20474;-83
2021/07/07 09:17:52;;;;;;;4.80;1.90;;;24.80;86.40;;;;;;5015308;28;20441;-82
2021/07/07 09:20:36;;;;;;;3.60;2.47;;;24.80;85.50;;;;;;5005145;28;20493;-81
2021/07/07 09:23:13;;;;;;;3.47;2.00;;;24.50;85.10;;;;;;4999972;28;20461;-83
2021/07/07 09:25:48;;;;;;;4.07;1.83;;;24.60;84.20;;;;;;4998746;28;20466;-82
2021/07/07 09:28:28;;;;;;;3.00;1.50;;;25.00;82.20;;;;;;5010690;28;20967;-82
2021/07/07 09:31:01;;;;;;;4.93;2.47;;;26.70;74.80;;;;;;5001425;28;20457;-81
2021/07/07 09:33:35;;;;;;;3.87;2.20;;;27.10;67.70;;;;;;4998922;28;20915;-82
2021/07/07 09:36:24;;;;;;;1.70;1.40;;;27.30;65.60;;;;;;4998833;28;20459;-82
2021/07/07 09:38:53;;;;;;;3.03;1.80;;;26.90;65.90;;;;;;5018607;28;20482;-82
2021/07/07 09:41:20;;;;;;;1.73;1.40;;;27.60;62.90;;;;;;5010413;28;20459;-82
2021/07/07 09:43:52;;;;;;;4.37;1.97;;;28.40;58.20;;;;;;5001611;28;20465;-81
2021/07/07 09:46:20;;;;;;;5.43;1.77;;;27.90;57.50;;;;;;4999478;28;20462;-81
2021/07/07 09:48:49;;;;;;;4.70;2.20;;;27.30;58.00;;;;;;5003253;28;20497;-82
2021/07/07 09:51:16;;;;;;;3.50;2.47;;;27.10;58.00;;;;;;5011987;28;20460;-82
2021/07/07 09:53:43;;;;;;;3.10;1.60;;;26.60;58.90;;;;;;5017420;28;20458;-82
2021/07/07 09:56:12;;;;;;;9.90;2.27;;;26.60;59.60;;;;;;4999869;28;20446;-82
2021/07/07 09:58:39;;;;;;;3.27;1.80;;;26.20;59.40;;;;;;4999602;28;20467;-82
2021/07/07 10:01:06;;;;;;;4.33;3.37;;;25.80;60.60;;;;;;5023669;28;20525;-83
2021/07/07 10:03:35;;;;;;;4.97;2.60;;;25.40;63.10;;;;;;5017072;28;20449;-82
2021/07/07 10:06:03;;;;;;;1.70;1.60;;;25.00;64.60;;;;;;5003297;28;20675;-83
2021/07/07 10:08:30;;;;;;;5.67;2.23;;;24.70;66.40;;;;;;5026654;28;20493;-81
2021/07/07 10:10:58;;;;;;;3.57;1.70;;;25.50;66.10;;;;;;5021654;28;20481;-81
2021/07/07 10:13:28;;;;;;;4.80;2.20;;;26.90;62.40;;;;;;5035794;28;20446;-82
2021/07/07 10:15:56;;;;;;;2.00;1.53;;;27.60;59.10;;;;;;5030003;28;20447;-82
2021/07/07 10:18:24;;;;;;;3.37;1.70;;;29.60;54.90;;;;;;4992352;28;20501;-83
2021/07/07 10:20:53;;;;;;;1.73;1.50;;;30.10;51.20;;;;;;5015955;28;20512;-83
2021/07/07 10:23:21;;;;;;;2.67;1.50;;;30.20;50.60;;;;;;5017277;28;20457;-83
2021/07/07 10:25:57;;;;;;;1.83;1.37;;;30.60;49.20;;;;;;5010425;28;20454;-83
2021/07/07 10:28:24;;;;;;;2.87;1.63;;;30.00;48.70;;;;;;4995737;28;20947;-83
2021/07/07 10:30:56;;;;;;;3.80;1.53;;;29.60;49.60;;;;;;5001823;28;20548;-83
2021/07/07 10:33:28;;;;;;;2.17;1.30;;;30.00;48.20;;;;;;5014650;28;20484;-82
2021/07/07 10:36:13;;;;;;;1.40;1.27;;;29.60;48.90;;;;;;4999257;28;20586;-82
2021/07/07 10:38:40;;;;;;;2.07;1.33;;;29.30;48.30;;;;;;4995430;28;20573;-82
2021/07/07 10:41:06;;;;;;;1.73;1.40;;;29.80;48.00;;;;;;5001120;28;20829;-82
2021/07/07 10:43:44;;;;;;;1.43;1.27;;;29.70;47.90;;;;;;4995839;28;20466;-82
2021/07/07 10:46:12;;;;;;;3.77;2.00;;;28.70;48.60;;;;;;5011629;28;21058;-81
2021/07/07 10:48:39;;;;;;;2.77;1.43;;;27.80;50.70;;;;;;5018922;28;20474;-83
2021/07/07 10:51:12;;;;;;;1.70;1.50;;;26.90;51.40;;;;;;5006313;28;21050;-82
2021/07/07 10:53:38;;;;;;;3.83;1.30;;;26.30;53.00;;;;;;5018996;28;20450;-82
2021/07/07 10:56:06;;;;;;;3.17;1.80;;;26.60;53.60;;;;;;5028180;28;20524;-81
2021/07/07 10:58:36;;;;;;;4.03;2.17;;;27.40;52.40;;;;;;5035840;28;20457;-82
2021/07/07 11:01:04;;;;;;;1.90;1.50;;;27.40;51.80;;;;;;5035212;28;20525;-81
2021/07/07 11:03:39;;;;;;;1.50;1.40;;;27.40;51.70;;;;;;5012941;28;20863;-81
2021/07/07 11:06:21;;;;;;;2.70;1.50;;;27.80;50.10;;;;;;5006339;28;20465;-82
2021/07/07 11:08:56;;;;;;;4.70;1.40;;;27.40;51.10;;;;;;5004326;28;20474;-80
2021/07/07 11:11:25;;;;;;;3.10;1.70;;;27.00;52.00;;;;;;5000273;28;20494;-81
2021/07/07 11:13:52;;;;;;;2.43;1.47;;;26.40;53.20;;;;;;4993274;28;20921;-81
2021/07/07 11:16:23;;;;;;;3.20;1.80;;;26.50;53.60;;;;;;4996206;28;20451;-81
2021/07/07 11:18:51;;;;;;;3.40;1.50;;;26.50;53.70;;;;;;5006820;28;20503;-82
2021/07/07 11:21:19;;;;;;;2.33;1.50;;;26.40;54.10;;;;;;5015376;28;20457;-82
2021/07/07 11:23:46;;;;;;;3.83;2.00;;;26.30;54.50;;;;;;5006581;28;20443;-81
2021/07/07 11:26:14;;;;;;;2.40;1.73;;;26.60;54.30;;;;;;4995419;28;20917;-81
2021/07/07 11:28:44;;;;;;;2.50;1.83;;;26.90;53.50;;;;;;4994710;28;20489;-81
2021/07/07 11:31:11;;;;;;;4.30;1.60;;;26.50;53.40;;;;;;4994967;28;20475;-81
2021/07/07 11:33:37;;;;;;;6.87;2.40;;;26.40;54.00;;;;;;4996222;28;20447;-82
2021/07/07 11:36:04;;;;;;;1.67;1.37;;;26.50;53.60;;;;;;5001348;28;20826;-82
2021/07/07 11:38:31;;;;;;;3.03;1.33;;;26.20;54.00;;;;;;4995627;28;20498;-82
2021/07/07 11:40:59;;;;;;;1.50;1.40;;;26.20;53.50;;;;;;4994280;28;20459;-82
2021/07/07 11:43:29;;;;;;;1.93;1.50;;;26.20;53.60;;;;;;5007379;28;20571;-81
2021/07/07 11:45:58;;;;;;;3.30;1.50;;;25.90;54.70;;;;;;5014063;28;20485;-82
2021/07/07 11:48:35;;;;;;;2.47;1.47;;;26.40;53.80;;;;;;5014491;28;20478;-82
2021/07/07 11:51:11;;;;;;;6.87;1.83;;;26.20;53.80;;;;;;5015479;28;20462;-82
2021/07/07 11:53:40;;;;;;;1.60;1.30;;;26.20;54.20;;;;;;5011579;28;20450;-83
2021/07/07 11:56:15;;;;;;;5.37;1.77;;;26.00;54.40;;;;;;5016010;28;20442;-83
2021/07/07 11:58:49;;;;;;;5.23;1.60;;;26.00;55.20;;;;;;5016259;28;20466;-82
2021/07/07 12:01:21;;;;;;;2.60;1.47;;;26.00;55.00;;;;;;5018426;28;20441;-82
2021/07/07 12:04:00;;;;;;;2.00;1.60;;;26.40;53.60;;;;;;5026672;28;20454;-82
2021/07/07 12:06:45;;;;;;;2.00;1.50;;;26.20;54.10;;;;;;5003836;28;20458;-82
2021/07/07 12:09:17;;;;;;;2.60;1.60;;;26.20;55.00;;;;;;5002329;28;20593;-82
2021/07/07 12:11:50;;;;;;;2.10;1.77;;;26.30;54.50;;;;;;5016966;28;20530;-82
2021/07/07 12:14:17;;;;;;;4.13;1.97;;;26.20;54.50;;;;;;5016071;28;20473;-82
2021/07/07 12:16:45;;;;;;;3.00;1.60;;;26.10;54.70;;;;;;5016111;28;20465;-81
2021/07/07 12:19:14;;;;;;;3.43;1.83;;;26.40;54.80;;;;;;4996636;28;20478;-81
2021/07/07 12:21:45;;;;;;;4.60;1.60;;;26.70;54.40;;;;;;4990296;28;20465;-80
2021/07/07 12:24:17;;;;;;;2.63;1.57;;;27.40;52.30;;;;;;5009479;28;20458;-81
2021/07/07 12:26:46;;;;;;;2.00;1.30;;;27.60;51.80;;;;;;5015631;28;20533;-81
2021/07/07 12:29:30;;;;;;;1.63;1.43;;;27.80;51.50;;;;;;4998092;28;20477;-82
2021/07/07 12:32:01;;;;;;;3.80;1.40;;;28.40;50.90;;;;;;4998184;28;20611;-80
2021/07/07 12:34:33;;;;;;;2.77;1.67;;;28.10;51.00;;;;;;5015496;28;20469;-81
2021/07/07 12:37:01;;;;;;;2.80;1.83;;;28.10;51.60;;;;;;5012122;28;20500;-81
2021/07/07 12:39:32;;;;;;;2.30;1.90;;;27.70;51.60;;;;;;4997053;28;20471;-81
2021/07/07 12:42:12;;;;;;;2.70;1.70;;;27.40;52.20;;;;;;5014639;28;20509;-81
2021/07/07 12:44:41;;;;;;;2.13;1.57;;;27.20;52.50;;;;;;5032009;28;20462;-82
2021/07/07 12:47:08;;;;;;;2.57;1.80;;;27.50;52.70;;;;;;5017771;28;20492;-81
2021/07/07 12:49:41;;;;;;;1.87;1.77;;;27.60;52.20;;;;;;5024437;28;20486;-82
2021/07/07 12:52:15;;;;;;;1.60;1.50;;;27.90;52.10;;;;;;5018387;28;20435;-82
2021/07/07 12:54:42;;;;;;;2.03;1.77;;;27.80;51.80;;;;;;5004935;28;20461;-82